sensor_id;sensor_type;location;lat;lon;timestamp;pressure;altitude;pressure_sealevel;temperature;humidity
16821;BME280;8527;49.740;6.604;2024-01-10T00:02:18;100827.91;;;-4.11;56.21
16821;BME280;8527;49.740;6.604;2024-01-10T00:07:19;100810.66;;;-4.12;56.27
16821;BME280;8527;49.740;6.604;2024-01-10T00:12:21;100816.06;;;-4.18;56.78
16821;BME280;8527;49.740;6.604;2024-01-10T00:17:22;100819.63;;;-4.22;56.73
16821;BME280;8527;49.740;6.604;2024-01-10T00:22:21;100813.78;;;-4.29;56.84
16821;BME280;8527;49.740;6.604;2024-01-10T00:27:23;100812.16;;;-4.33;56.86
16821;BME280;8527;49.740;6.604;2024-01-10T00:32:22;100808.03;;;-4.39;57.21
16821;BME280;8527;49.740;6.604;2024-01-10T00:37:20;100808.88;;;-4.39;57.50
16821;BME280;8527;49.740;6.604;2024-01-10T00:42:21;100796.78;;;-4.38;57.27
16821;BME280;8527;49.740;6.604;2024-01-10T00:47:20;100808.16;;;-4.44;57.25
16821;BME280;8527;49.740;6.604;2024-01-10T00:52:19;100802.03;;;-4.41;57.43
16821;BME280;8527;49.740;6.604;2024-01-10T00:57:18;100793.72;;;-4.51;57.28
16821;BME280;8527;49.740;6.604;2024-01-10T01:02:19;100784.25;;;-4.52;57.37
16821;BME280;8527;49.740;6.604;2024-01-10T01:07:17;100782.69;;;-4.58;57.31
16821;BME280;8527;49.740;6.604;2024-01-10T01:12:19;100798.41;;;-4.64;57.86
16821;BME280;8527;49.740;6.604;2024-01-10T01:17:21;100796.78;;;-4.68;57.86
16821;BME280;8527;49.740;6.604;2024-01-10T01:22:20;100787.25;;;-4.66;57.84
16821;BME280;8527;49.740;6.604;2024-01-10T01:27:19;100782.19;;;-4.71;58.06
16821;BME280;8527;49.740;6.604;2024-01-10T01:32:20;100785.63;;;-4.70;58.50
16821;BME280;8527;49.740;6.604;2024-01-10T01:37:24;100783.16;;;-4.73;58.70
16821;BME280;8527;49.740;6.604;2024-01-10T01:42:23;100775.44;;;-4.76;58.46
16821;BME280;8527;49.740;6.604;2024-01-10T01:47:27;100767.69;;;-4.76;58.80
16821;BME280;8527;49.740;6.604;2024-01-10T01:52:25;100769.53;;;-4.80;58.33
16821;BME280;8527;49.740;6.604;2024-01-10T01:57:24;100762.56;;;-4.78;58.44
16821;BME280;8527;49.740;6.604;2024-01-10T02:02:29;100758.31;;;-4.81;58.69
16821;BME280;8527;49.740;6.604;2024-01-10T02:07:31;100763.59;;;-4.84;58.99
16821;BME280;8527;49.740;6.604;2024-01-10T02:12:33;100749.75;;;-4.83;58.57
16821;BME280;8527;49.740;6.604;2024-01-10T02:17:38;100755.84;;;-4.84;58.83
16821;BME280;8527;49.740;6.604;2024-01-10T02:22:36;100752.28;;;-4.81;58.81
16821;BME280;8527;49.740;6.604;2024-01-10T02:27:41;100745.28;;;-4.77;59.37
16821;BME280;8527;49.740;6.604;2024-01-10T02:32:42;100745.53;;;-4.87;59.01
16821;BME280;8527;49.740;6.604;2024-01-10T02:37:41;100746.41;;;-4.86;59.18
16821;BME280;8527;49.740;6.604;2024-01-10T02:42:48;100754.41;;;-4.94;59.47
16821;BME280;8527;49.740;6.604;2024-01-10T02:47:46;100751.72;;;-4.91;59.34
16821;BME280;8527;49.740;6.604;2024-01-10T02:52:44;100750.22;;;-4.98;59.25
16821;BME280;8527;49.740;6.604;2024-01-10T02:57:43;100741.72;;;-5.03;59.92
16821;BME280;8527;49.740;6.604;2024-01-10T03:02:44;100739.13;;;-5.03;59.98
16821;BME280;8527;49.740;6.604;2024-01-10T03:07:43;100733.06;;;-5.02;60.17
16821;BME280;8527;49.740;6.604;2024-01-10T03:12:47;100734.00;;;-5.05;60.31
16821;BME280;8527;49.740;6.604;2024-01-10T03:17:53;100734.84;;;-5.04;60.42
16821;BME280;8527;49.740;6.604;2024-01-10T03:22:52;100723.59;;;-5.03;60.58
16821;BME280;8527;49.740;6.604;2024-01-10T03:27:51;100726.28;;;-5.06;60.17
16821;BME280;8527;49.740;6.604;2024-01-10T03:32:58;100726.31;;;-5.08;60.41
16821;BME280;8527;49.740;6.604;2024-01-10T03:38:00;100730.53;;;-5.04;60.53
16821;BME280;8527;49.740;6.604;2024-01-10T03:42:59;100725.28;;;-5.02;60.71
16821;BME280;8527;49.740;6.604;2024-01-10T03:48:02;100726.19;;;-5.03;60.81
16821;BME280;8527;49.740;6.604;2024-01-10T03:53:07;100721.81;;;-5.01;60.94
16821;BME280;8527;49.740;6.604;2024-01-10T03:58:06;100722.63;;;-4.99;61.37
16821;BME280;8527;49.740;6.604;2024-01-10T04:03:10;100714.19;;;-5.06;61.86
16821;BME280;8527;49.740;6.604;2024-01-10T04:08:08;100702.09;;;-5.05;62.20
16821;BME280;8527;49.740;6.604;2024-01-10T04:13:07;100709.69;;;-4.99;62.09
16821;BME280;8527;49.740;6.604;2024-01-10T04:18:05;100708.66;;;-4.94;61.72
16821;BME280;8527;49.740;6.604;2024-01-10T04:23:12;100704.53;;;-4.99;62.36
16821;BME280;8527;49.740;6.604;2024-01-10T04:28:20;100706.25;;;-5.00;60.96
16821;BME280;8527;49.740;6.604;2024-01-10T04:33:22;100706.16;;;-4.97;60.89
16821;BME280;8527;49.740;6.604;2024-01-10T04:38:23;100713.13;;;-4.99;61.01
16821;BME280;8527;49.740;6.604;2024-01-10T04:43:25;100701.88;;;-4.98;60.96
16821;BME280;8527;49.740;6.604;2024-01-10T04:48:25;100704.00;;;-5.11;61.39
16821;BME280;8527;49.740;6.604;2024-01-10T04:53:26;100700.41;;;-5.06;61.16
16821;BME280;8527;49.740;6.604;2024-01-10T04:58:27;100703.53;;;-4.95;61.31
16821;BME280;8527;49.740;6.604;2024-01-10T05:03:30;100710.78;;;-5.08;61.45
16821;BME280;8527;49.740;6.604;2024-01-10T05:08:31;100705.09;;;-4.89;61.91
16821;BME280;8527;49.740;6.604;2024-01-10T05:13:32;100706.22;;;-4.98;63.13
16821;BME280;8527;49.740;6.604;2024-01-10T05:18:30;100705.31;;;-4.97;63.62
16821;BME280;8527;49.740;6.604;2024-01-10T05:23:32;100701.22;;;-5.04;63.90
16821;BME280;8527;49.740;6.604;2024-01-10T05:28:31;100702.28;;;-5.12;64.63
16821;BME280;8527;49.740;6.604;2024-01-10T05:33:29;100703.56;;;-5.27;65.10
16821;BME280;8527;49.740;6.604;2024-01-10T05:38:28;100704.56;;;-5.31;65.51
16821;BME280;8527;49.740;6.604;2024-01-10T05:43:32;100706.06;;;-5.24;65.75
16821;BME280;8527;49.740;6.604;2024-01-10T05:48:32;100708.63;;;-5.22;66.18
16821;BME280;8527;49.740;6.604;2024-01-10T05:53:32;100711.16;;;-5.20;66.11
16821;BME280;8527;49.740;6.604;2024-01-10T05:58:36;100711.09;;;-5.19;66.33
16821;BME280;8527;49.740;6.604;2024-01-10T06:03:37;100711.28;;;-5.25;66.12
16821;BME280;8527;49.740;6.604;2024-01-10T06:08:37;100712.16;;;-5.26;66.52
16821;BME280;8527;49.740;6.604;2024-01-10T06:13:39;100696.03;;;-5.34;67.08
16821;BME280;8527;49.740;6.604;2024-01-10T06:18:38;100700.59;;;-5.44;66.96
16821;BME280;8527;49.740;6.604;2024-01-10T06:23:39;100698.22;;;-5.52;67.29
16821;BME280;8527;49.740;6.604;2024-01-10T06:28:43;100697.53;;;-5.59;67.40
16821;BME280;8527;49.740;6.604;2024-01-10T06:33:45;100705.16;;;-5.54;67.19
16821;BME280;8527;49.740;6.604;2024-01-10T06:38:44;100693.91;;;-5.52;67.13
16821;BME280;8527;49.740;6.604;2024-01-10T06:43:46;100706.75;;;-5.48;67.30
16821;BME280;8527;49.740;6.604;2024-01-10T06:48:44;100705.34;;;-5.60;67.10
16821;BME280;8527;49.740;6.604;2024-01-10T06:53:43;100709.63;;;-5.59;67.00
16821;BME280;8527;49.740;6.604;2024-01-10T06:58:41;100724.03;;;-5.51;67.01
16821;BME280;8527;49.740;6.604;2024-01-10T07:03:45;100718.16;;;-5.56;67.41
16821;BME280;8527;49.740;6.604;2024-01-10T07:08:44;100724.16;;;-5.55;66.45
16821;BME280;8527;49.740;6.604;2024-01-10T07:13:42;100737.13;;;-5.57;67.14
16821;BME280;8527;49.740;6.604;2024-01-10T07:18:51;100731.72;;;-5.47;66.93
16821;BME280;8527;49.740;6.604;2024-01-10T07:23:58;100730.56;;;-5.37;66.91
16821;BME280;8527;49.740;6.604;2024-01-10T07:28:56;100742.16;;;-5.52;66.49
16821;BME280;8527;49.740;6.604;2024-01-10T07:34:02;100738.63;;;-5.48;66.79
16821;BME280;8527;49.740;6.604;2024-01-10T07:39:03;100744.59;;;-5.46;66.85
16821;BME280;8527;49.740;6.604;2024-01-10T07:44:01;100752.13;;;-5.37;66.62
16821;BME280;8527;49.740;6.604;2024-01-10T07:49:03;100747.91;;;-5.41;66.70
16821;BME280;8527;49.740;6.604;2024-01-10T07:54:02;100756.66;;;-5.46;66.79
16821;BME280;8527;49.740;6.604;2024-01-10T07:59:00;100748.84;;;-5.43;67.13
16821;BME280;8527;49.740;6.604;2024-01-10T08:03:59;100746.97;;;-5.38;66.85
16821;BME280;8527;49.740;6.604;2024-01-10T08:09:05;100751.50;;;-5.46;67.31
16821;BME280;8527;49.740;6.604;2024-01-10T08:14:06;100749.56;;;-5.38;67.39
16821;BME280;8527;49.740;6.604;2024-01-10T08:19:13;100754.66;;;-5.35;67.34
16821;BME280;8527;49.740;6.604;2024-01-10T08:24:17;100756.53;;;-5.40;67.51
16821;BME280;8527;49.740;6.604;2024-01-10T08:29:16;100755.66;;;-5.41;67.37
16821;BME280;8527;49.740;6.604;2024-01-10T08:34:22;100745.19;;;-5.36;67.21
16821;BME280;8527;49.740;6.604;2024-01-10T08:39:26;100754.88;;;-5.44;67.47
16821;BME280;8527;49.740;6.604;2024-01-10T08:44:26;100736.53;;;-5.33;67.80
16821;BME280;8527;49.740;6.604;2024-01-10T08:49:24;100758.44;;;-5.15;67.38
16821;BME280;8527;49.740;6.604;2024-01-10T08:54:26;100756.81;;;-5.19;67.54
16821;BME280;8527;49.740;6.604;2024-01-10T08:59:28;100763.56;;;-5.14;67.53
16821;BME280;8527;49.740;6.604;2024-01-10T09:04:40;100758.22;;;-5.07;67.27
16821;BME280;8527;49.740;6.604;2024-01-10T09:09:43;100764.03;;;-4.99;67.01
16821;BME280;8527;49.740;6.604;2024-01-10T09:14:47;100773.50;;;-4.98;66.82
16821;BME280;8527;49.740;6.604;2024-01-10T09:19:50;100779.13;;;-4.84;66.64
16821;BME280;8527;49.740;6.604;2024-01-10T09:24:55;100775.03;;;-4.61;66.50
16821;BME280;8527;49.740;6.604;2024-01-10T09:29:58;100777.44;;;-4.56;66.04
16821;BME280;8527;49.740;6.604;2024-01-10T09:34:57;100772.75;;;-4.43;65.73
16821;BME280;8527;49.740;6.604;2024-01-10T09:39:58;100788.53;;;-4.51;65.93
16821;BME280;8527;49.740;6.604;2024-01-10T09:45:03;100787.03;;;-4.30;65.95
16821;BME280;8527;49.740;6.604;2024-01-10T09:50:05;100787.91;;;-4.29;65.04
16821;BME280;8527;49.740;6.604;2024-01-10T09:55:08;100783.44;;;-4.26;65.20
16821;BME280;8527;49.740;6.604;2024-01-10T10:00:12;100782.81;;;-4.05;64.45
16821;BME280;8527;49.740;6.604;2024-01-10T10:05:16;100773.13;;;-3.72;64.30
16821;BME280;8527;49.740;6.604;2024-01-10T10:10:21;100776.19;;;-3.35;63.30
16821;BME280;8527;49.740;6.604;2024-01-10T10:15:24;100783.75;;;-3.54;63.19
16821;BME280;8527;49.740;6.604;2024-01-10T10:20:38;100778.19;;;-3.43;62.80
16821;BME280;8527;49.740;6.604;2024-01-10T10:25:45;100777.47;;;-3.47;62.73
16821;BME280;8527;49.740;6.604;2024-01-10T10:30:44;100774.75;;;-3.18;62.37
16821;BME280;8527;49.740;6.604;2024-01-10T10:35:44;100776.38;;;-2.90;61.34
16821;BME280;8527;49.740;6.604;2024-01-10T10:40:45;100767.81;;;-2.70;61.51
16821;BME280;8527;49.740;6.604;2024-01-10T10:45:47;100763.59;;;-2.50;60.78
16821;BME280;8527;49.740;6.604;2024-01-10T10:50:50;100768.41;;;-2.17;59.96
16821;BME280;8527;49.740;6.604;2024-01-10T10:55:57;100760.44;;;-2.13;59.55
16821;BME280;8527;49.740;6.604;2024-01-10T11:00:57;100759.75;;;-1.95;59.15
16821;BME280;8527;49.740;6.604;2024-01-10T11:06:01;100758.28;;;-2.03;59.12
16821;BME280;8527;49.740;6.604;2024-01-10T11:11:05;100757.97;;;-1.95;58.69
16821;BME280;8527;49.740;6.604;2024-01-10T11:16:26;100772.84;;;-1.76;58.63
16821;BME280;8527;49.740;6.604;2024-01-10T11:21:37;100766.81;;;-1.78;58.97
16821;BME280;8527;49.740;6.604;2024-01-10T11:26:45;100764.88;;;-1.94;58.66
16821;BME280;8527;49.740;6.604;2024-01-10T11:31:50;100765.69;;;-1.71;58.56
16821;BME280;8527;49.740;6.604;2024-01-10T11:37:09;100770.03;;;-1.72;58.11
16821;BME280;8527;49.740;6.604;2024-01-10T11:42:11;100773.75;;;-1.57;58.33
16821;BME280;8527;49.740;6.604;2024-01-10T11:47:19;100766.28;;;-1.44;58.18
16821;BME280;8527;49.740;6.604;2024-01-10T11:52:21;100752.69;;;-1.50;58.33
16821;BME280;8527;49.740;6.604;2024-01-10T11:57:25;100755.25;;;-1.30;57.86
16821;BME280;8527;49.740;6.604;2024-01-10T12:02:24;100745.34;;;-1.21;57.45
16821;BME280;8527;49.740;6.604;2024-01-10T12:07:26;100743.88;;;-1.27;57.50
16821;BME280;8527;49.740;6.604;2024-01-10T12:12:28;100750.28;;;-1.15;57.53
16821;BME280;8527;49.740;6.604;2024-01-10T12:17:28;100746.50;;;-1.08;57.16
16821;BME280;8527;49.740;6.604;2024-01-10T12:22:27;100743.41;;;-0.97;57.03
16821;BME280;8527;49.740;6.604;2024-01-10T12:27:28;100739.31;;;-0.83;56.87
16821;BME280;8527;49.740;6.604;2024-01-10T12:32:29;100730.59;;;-0.82;56.82
16821;BME280;8527;49.740;6.604;2024-01-10T12:37:30;100736.50;;;-0.79;57.06
16821;BME280;8527;49.740;6.604;2024-01-10T12:42:31;100723.38;;;-0.76;57.02
16821;BME280;8527;49.740;6.604;2024-01-10T12:47:36;100717.66;;;-0.84;57.13
16821;BME280;8527;49.740;6.604;2024-01-10T12:52:35;100702.22;;;-0.69;57.10
16821;BME280;8527;49.740;6.604;2024-01-10T12:57:37;100703.06;;;-0.69;57.11
16821;BME280;8527;49.740;6.604;2024-01-10T13:02:37;100708.97;;;-0.65;57.13
16821;BME280;8527;49.740;6.604;2024-01-10T13:07:35;100703.94;;;-0.51;56.74
16821;BME280;8527;49.740;6.604;2024-01-10T13:12:39;100691.41;;;-0.43;56.65
16821;BME280;8527;49.740;6.604;2024-01-10T13:17:38;100697.09;;;-0.34;56.89
16821;BME280;8527;49.740;6.604;2024-01-10T13:22:37;100704.59;;;-0.46;56.83
16821;BME280;8527;49.740;6.604;2024-01-10T13:27:35;100704.59;;;-0.46;56.84
16821;BME280;8527;49.740;6.604;2024-01-10T13:32:39;100706.81;;;-0.38;57.20
16821;BME280;8527;49.740;6.604;2024-01-10T13:37:37;100702.00;;;-0.28;57.19
16821;BME280;8527;49.740;6.604;2024-01-10T13:42:44;100698.19;;;-0.21;56.90
16821;BME280;8527;49.740;6.604;2024-01-10T13:47:46;100704.38;;;-0.23;57.20
16821;BME280;8527;49.740;6.604;2024-01-10T13:52:45;100709.91;;;-0.12;57.41
16821;BME280;8527;49.740;6.604;2024-01-10T13:57:44;100706.09;;;-0.05;57.36
16821;BME280;8527;49.740;6.604;2024-01-10T14:02:42;100719.38;;;-0.09;57.30
16821;BME280;8527;49.740;6.604;2024-01-10T14:07:43;100714.84;;;-0.06;57.81
16821;BME280;8527;49.740;6.604;2024-01-10T14:12:42;100697.56;;;-0.08;57.44
16821;BME280;8527;49.740;6.604;2024-01-10T14:17:41;100698.66;;;-0.12;57.92
16821;BME280;8527;49.740;6.604;2024-01-10T14:22:45;100704.75;;;-0.13;58.18
16821;BME280;8527;49.740;6.604;2024-01-10T14:27:45;100704.22;;;-0.20;58.40
16821;BME280;8527;49.740;6.604;2024-01-10T14:32:43;100694.50;;;-0.17;59.54
16821;BME280;8527;49.740;6.604;2024-01-10T14:37:45;100696.78;;;-0.28;59.75
16821;BME280;8527;49.740;6.604;2024-01-10T14:42:44;100702.16;;;-0.31;61.22
16821;BME280;8527;49.740;6.604;2024-01-10T14:47:42;100716.03;;;-0.31;59.77
16821;BME280;8527;49.740;6.604;2024-01-10T14:52:46;100721.94;;;-0.27;59.43
16821;BME280;8527;49.740;6.604;2024-01-10T14:57:47;100733.81;;;-0.21;59.48
16821;BME280;8527;49.740;6.604;2024-01-10T15:02:46;100715.72;;;-0.24;60.13
16821;BME280;8527;49.740;6.604;2024-01-10T15:07:50;100724.63;;;-0.29;60.51
16821;BME280;8527;49.740;6.604;2024-01-10T15:12:49;100730.88;;;-0.33;60.58
16821;BME280;8527;49.740;6.604;2024-01-10T15:17:47;100726.53;;;-0.32;60.74
16821;BME280;8527;49.740;6.604;2024-01-10T15:22:46;100723.06;;;-0.33;61.66
16821;BME280;8527;49.740;6.604;2024-01-10T15:27:47;100729.66;;;-0.43;62.45
16821;BME280;8527;49.740;6.604;2024-01-10T15:32:49;100723.38;;;-0.39;62.40
16821;BME280;8527;49.740;6.604;2024-01-10T15:37:47;100727.50;;;-0.52;63.25
16821;BME280;8527;49.740;6.604;2024-01-10T15:42:51;100726.34;;;-0.47;64.14
16821;BME280;8527;49.740;6.604;2024-01-10T15:47:49;100729.25;;;-0.53;64.65
16821;BME280;8527;49.740;6.604;2024-01-10T15:52:50;100745.59;;;-0.49;63.80
16821;BME280;8527;49.740;6.604;2024-01-10T15:57:51;100740.38;;;-0.49;63.10
16821;BME280;8527;49.740;6.604;2024-01-10T16:02:50;100758.81;;;-0.54;62.92
16821;BME280;8527;49.740;6.604;2024-01-10T16:07:49;100755.31;;;-0.53;63.13
16821;BME280;8527;49.740;6.604;2024-01-10T16:12:54;100757.91;;;-0.53;62.53
16821;BME280;8527;49.740;6.604;2024-01-10T16:17:52;100760.59;;;-0.54;62.40
16821;BME280;8527;49.740;6.604;2024-01-10T16:22:51;100764.91;;;-0.53;62.15
16821;BME280;8527;49.740;6.604;2024-01-10T16:27:52;100762.44;;;-0.57;62.44
16821;BME280;8527;49.740;6.604;2024-01-10T16:32:54;100769.56;;;-0.60;62.86
16821;BME280;8527;49.740;6.604;2024-01-10T16:37:56;100768.22;;;-0.69;62.99
16821;BME280;8527;49.740;6.604;2024-01-10T16:42:57;100771.84;;;-0.73;62.80
16821;BME280;8527;49.740;6.604;2024-01-10T16:47:56;100780.59;;;-0.74;63.20
16821;BME280;8527;49.740;6.604;2024-01-10T16:52:54;100778.75;;;-0.72;63.57
16821;BME280;8527;49.740;6.604;2024-01-10T16:57:53;100794.47;;;-0.93;65.19
16821;BME280;8527;49.740;6.604;2024-01-10T17:02:54;100793.59;;;-0.93;64.48
16821;BME280;8527;49.740;6.604;2024-01-10T17:07:56;100794.00;;;-1.03;64.63
16821;BME280;8527;49.740;6.604;2024-01-10T17:13:02;100787.19;;;-1.05;65.73
16821;BME280;8527;49.740;6.604;2024-01-10T17:18:03;100803.78;;;-1.08;65.42
16821;BME280;8527;49.740;6.604;2024-01-10T17:23:02;100803.44;;;-1.00;66.14
16821;BME280;8527;49.740;6.604;2024-01-10T17:28:01;100807.06;;;-1.23;67.52
16821;BME280;8527;49.740;6.604;2024-01-10T17:33:05;100803.81;;;-1.49;68.50
16821;BME280;8527;49.740;6.604;2024-01-10T17:38:05;100807.25;;;-1.49;68.65
16821;BME280;8527;49.740;6.604;2024-01-10T17:43:06;100801.53;;;-1.57;68.37
16821;BME280;8527;49.740;6.604;2024-01-10T17:48:08;100803.31;;;-1.59;70.26
16821;BME280;8527;49.740;6.604;2024-01-10T17:53:11;100816.25;;;-1.56;68.32
16821;BME280;8527;49.740;6.604;2024-01-10T17:58:11;100817.53;;;-1.66;69.17
16821;BME280;8527;49.740;6.604;2024-01-10T18:03:12;100821.75;;;-1.64;68.05
16821;BME280;8527;49.740;6.604;2024-01-10T18:08:12;100829.44;;;-1.61;68.67
16821;BME280;8527;49.740;6.604;2024-01-10T18:13:13;100835.47;;;-1.60;67.97
16821;BME280;8527;49.740;6.604;2024-01-10T18:18:14;100841.44;;;-1.58;67.79
16821;BME280;8527;49.740;6.604;2024-01-10T18:23:13;100852.00;;;-1.61;68.36
16821;BME280;8527;49.740;6.604;2024-01-10T18:28:14;100851.75;;;-1.77;69.06
16821;BME280;8527;49.740;6.604;2024-01-10T18:33:18;100855.97;;;-1.95;70.40
16821;BME280;8527;49.740;6.604;2024-01-10T18:38:26;100852.97;;;-2.08;71.31
16821;BME280;8527;49.740;6.604;2024-01-10T18:43:25;100865.13;;;-2.09;71.97
16821;BME280;8527;49.740;6.604;2024-01-10T18:48:26;100862.50;;;-2.09;71.68
16821;BME280;8527;49.740;6.604;2024-01-10T18:53:25;100865.75;;;-2.02;71.17
16821;BME280;8527;49.740;6.604;2024-01-10T18:58:27;100868.28;;;-2.01;71.10
16821;BME280;8527;49.740;6.604;2024-01-10T19:03:28;100867.34;;;-2.22;71.31
16821;BME280;8527;49.740;6.604;2024-01-10T19:08:29;100876.66;;;-2.16;72.66
16821;BME280;8527;49.740;6.604;2024-01-10T19:13:28;100878.53;;;-2.20;71.97
16821;BME280;8527;49.740;6.604;2024-01-10T19:18:36;100895.94;;;-2.22;73.72
16821;BME280;8527;49.740;6.604;2024-01-10T19:23:37;100878.25;;;-2.36;72.17
16821;BME280;8527;49.740;6.604;2024-01-10T19:28:40;100877.59;;;-2.41;73.54
16821;BME280;8527;49.740;6.604;2024-01-10T19:33:41;100887.38;;;-2.48;73.14
16821;BME280;8527;49.740;6.604;2024-01-10T19:38:43;100887.84;;;-2.62;74.13
16821;BME280;8527;49.740;6.604;2024-01-10T19:43:45;100888.00;;;-2.66;73.99
16821;BME280;8527;49.740;6.604;2024-01-10T19:48:47;100897.41;;;-2.62;74.82
16821;BME280;8527;49.740;6.604;2024-01-10T19:53:46;100890.56;;;-2.65;74.78
16821;BME280;8527;49.740;6.604;2024-01-10T19:58:47;100905.38;;;-2.67;74.15
16821;BME280;8527;49.740;6.604;2024-01-10T20:03:48;100901.06;;;-2.68;74.46
16821;BME280;8527;49.740;6.604;2024-01-10T20:08:50;100910.13;;;-2.80;74.60
16821;BME280;8527;49.740;6.604;2024-01-10T20:13:51;100917.44;;;-2.91;75.21
16821;BME280;8527;49.740;6.604;2024-01-10T20:18:55;100925.22;;;-2.91;75.23
16821;BME280;8527;49.740;6.604;2024-01-10T20:23:54;100918.97;;;-2.86;74.60
16821;BME280;8527;49.740;6.604;2024-01-10T20:28:57;100931.06;;;-2.85;75.01
16821;BME280;8527;49.740;6.604;2024-01-10T20:33:59;100927.59;;;-3.11;75.36
16821;BME280;8527;49.740;6.604;2024-01-10T20:39:04;100938.16;;;-2.90;74.93
16821;BME280;8527;49.740;6.604;2024-01-10T20:44:03;100941.03;;;-2.98;74.60
16821;BME280;8527;49.740;6.604;2024-01-10T20:49:04;100957.00;;;-3.10;74.96
16821;BME280;8527;49.740;6.604;2024-01-10T20:54:03;100958.16;;;-3.19;76.16
16821;BME280;8527;49.740;6.604;2024-01-10T20:59:05;100960.69;;;-3.17;76.26
16821;BME280;8527;49.740;6.604;2024-01-10T21:04:06;100960.16;;;-3.27;77.49
16821;BME280;8527;49.740;6.604;2024-01-10T21:09:09;100960.44;;;-3.36;76.63
16821;BME280;8527;49.740;6.604;2024-01-10T21:14:08;100950.50;;;-3.50;77.30
16821;BME280;8527;49.740;6.604;2024-01-10T21:19:12;100952.25;;;-3.51;77.09
16821;BME280;8527;49.740;6.604;2024-01-10T21:24:11;100944.34;;;-3.48;76.73
16821;BME280;8527;49.740;6.604;2024-01-10T21:29:11;100937.56;;;-3.52;75.95
16821;BME280;8527;49.740;6.604;2024-01-10T21:34:12;100938.81;;;-3.64;76.52
16821;BME280;8527;49.740;6.604;2024-01-10T21:39:11;100947.06;;;-3.51;76.19
16821;BME280;8527;49.740;6.604;2024-01-10T21:44:16;100934.06;;;-3.49;76.21
16821;BME280;8527;49.740;6.604;2024-01-10T21:49:18;100938.44;;;-3.51;75.88
16821;BME280;8527;49.740;6.604;2024-01-10T21:54:19;100940.38;;;-3.58;76.51
16821;BME280;8527;49.740;6.604;2024-01-10T21:59:17;100951.13;;;-3.71;77.38
16821;BME280;8527;49.740;6.604;2024-01-10T22:04:20;100940.03;;;-3.76;77.92
16821;BME280;8527;49.740;6.604;2024-01-10T22:09:20;100950.53;;;-3.81;77.35
16821;BME280;8527;49.740;6.604;2024-01-10T22:14:19;100956.09;;;-3.93;77.76
16821;BME280;8527;49.740;6.604;2024-01-10T22:19:29;100955.38;;;-3.98;78.35
16821;BME280;8527;49.740;6.604;2024-01-10T22:24:28;100955.59;;;-4.04;78.44
16821;BME280;8527;49.740;6.604;2024-01-10T22:29:26;100953.94;;;-4.08;78.94
16821;BME280;8527;49.740;6.604;2024-01-10T22:34:28;100948.16;;;-4.17;79.17
16821;BME280;8527;49.740;6.604;2024-01-10T22:39:32;100954.38;;;-4.22;79.10
16821;BME280;8527;49.740;6.604;2024-01-10T22:44:34;100951.63;;;-4.18;78.55
16821;BME280;8527;49.740;6.604;2024-01-10T22:49:35;100943.78;;;-4.15;79.62
16821;BME280;8527;49.740;6.604;2024-01-10T22:54:37;100951.97;;;-4.30;79.12
16821;BME280;8527;49.740;6.604;2024-01-10T22:59:36;100960.69;;;-4.33;79.13
16821;BME280;8527;49.740;6.604;2024-01-10T23:04:43;100960.84;;;-4.39;78.78
16821;BME280;8527;49.740;6.604;2024-01-10T23:09:51;100954.16;;;-4.46;80.26
16821;BME280;8527;49.740;6.604;2024-01-10T23:14:53;100969.69;;;-4.46;79.60
16821;BME280;8527;49.740;6.604;2024-01-10T23:19:57;100974.09;;;-4.50;79.43
16821;BME280;8527;49.740;6.604;2024-01-10T23:24:59;100970.75;;;-4.55;79.75
16821;BME280;8527;49.740;6.604;2024-01-10T23:30:04;100970.16;;;-4.65;79.83
16821;BME280;8527;49.740;6.604;2024-01-10T23:35:07;100970.28;;;-4.70;79.87
16821;BME280;8527;49.740;6.604;2024-01-10T23:40:11;100969.47;;;-4.72;80.68
16821;BME280;8527;49.740;6.604;2024-01-10T23:45:11;100970.47;;;-4.76;80.81
16821;BME280;8527;49.740;6.604;2024-01-10T23:50:12;100977.44;;;-4.80;80.62
16821;BME280;8527;49.740;6.604;2024-01-10T23:55:11;100968.00;;;-4.82;81.00
